Custar, Ohio
Current Conditions -  °F | °C
As of 6:53 AM on Friday 28 Nov 2014 (Local Time) from KFDY Reporting Station
Broken Clouds Broken Clouds  
Wind Chill: 13°   Ceiling: 3600
Heat Index: 22°   Visibility: 10mi
Dew Point: 18°   Wind: 7mph
Humidity: 85%   Direction: 260°W
Pressure: 30.36"   Gusts: NA
Location:  41.28°N, 83.84°W
Report Text: KFDY 281153Z AUTO 26006KT 10SM SCT016 BKN036 M06/M08 A3036 RMK AO2 SLP287 60000 T10561078 11028 21056 53004
Loading
Personal Weather Stations






























Interactive Weather Map New forecast layout! Learn more

10-Day Weather Forecast

Advertisements
Track Severe Weather on mobile